Time;durP1;ratioP1;P1;durP2;ratioP2;P2;SDS_P1;SDS_P2;PMS_P1;PMS_P2;Temp;Humidity;BMP_temperature;BMP_pressure;BME280_temperature;BME280_humidity;BME280_pressure;Samples;Min_cycle;Max_cycle;Signal;HPM_P1;HPM_P2
2021/09/13 00:01:03;;;;;;;3.47;1.52;;;22.40;90.30;;;;;;5072428;28;20099;-82
2021/09/13 00:03:28;;;;;;;2.97;1.75;;;22.40;90.40;;;;;;5072344;28;20025;-81
2021/09/13 00:05:54;;;;;;;2.67;1.90;;;22.40;90.50;;;;;;5072329;28;20028;-79
2021/09/13 00:08:20;;;;;;;3.33;1.80;;;22.40;90.60;;;;;;5073436;28;20407;-82
2021/09/13 00:10:46;;;;;;;4.35;2.25;;;22.40;90.70;;;;;;5073156;28;20547;-82
2021/09/13 00:13:12;;;;;;;2.28;2.08;;;22.40;90.80;;;;;;5072706;28;20035;-81
2021/09/13 00:15:38;;;;;;;2.97;1.85;;;22.40;90.90;;;;;;5072292;28;20028;-80
2021/09/13 00:18:04;;;;;;;3.03;1.80;;;22.40;90.90;;;;;;5072498;28;20037;-80
2021/09/13 00:20:30;;;;;;;2.85;1.90;;;22.40;90.90;;;;;;5072694;28;20020;-80
2021/09/13 00:22:56;;;;;;;1.80;1.45;;;22.40;90.90;;;;;;5071992;28;20028;-81
2021/09/13 00:25:21;;;;;;;2.42;1.60;;;22.40;90.80;;;;;;5072473;28;20029;-82
2021/09/13 00:27:48;;;;;;;2.50;1.45;;;22.40;90.80;;;;;;5072784;28;20100;-81
2021/09/13 00:30:14;;;;;;;3.25;1.60;;;22.40;90.80;;;;;;5071488;28;20024;-82
2021/09/13 00:32:39;;;;;;;2.80;1.60;;;22.40;90.70;;;;;;5071659;28;20490;-82
2021/09/13 00:35:06;;;;;;;2.80;1.75;;;22.40;90.80;;;;;;5072473;28;20035;-82
2021/09/13 00:37:31;;;;;;;3.08;1.52;;;22.40;90.70;;;;;;5072342;28;20103;-82
2021/09/13 00:39:57;;;;;;;3.10;1.73;;;22.40;90.70;;;;;;5071953;28;20100;-81
2021/09/13 00:42:23;;;;;;;2.42;1.42;;;22.40;90.60;;;;;;5072050;28;20028;-82
2021/09/13 00:44:48;;;;;;;2.42;1.33;;;22.40;90.60;;;;;;5072204;28;20058;-82
2021/09/13 00:47:14;;;;;;;2.95;1.60;;;22.30;90.60;;;;;;5072417;28;20085;-82
2021/09/13 00:49:40;;;;;;;2.58;1.60;;;22.40;90.50;;;;;;5070384;28;20036;-81
2021/09/13 00:52:06;;;;;;;2.10;1.65;;;22.40;90.50;;;;;;5070961;28;20500;-82
2021/09/13 00:54:33;;;;;;;1.88;1.30;;;22.40;90.50;;;;;;5071308;28;20020;-81
2021/09/13 00:56:58;;;;;;;2.30;1.33;;;22.30;90.80;;;;;;5072039;28;20037;-82
2021/09/13 00:59:25;;;;;;;2.95;1.55;;;22.30;90.40;;;;;;5071043;28;20031;-81
2021/09/13 01:01:51;;;;;;;1.63;1.20;;;22.30;90.40;;;;;;5071689;28;20021;-82
2021/09/13 01:04:16;;;;;;;2.63;1.67;;;22.30;90.30;;;;;;5072102;28;20025;-82
2021/09/13 01:06:42;;;;;;;2.30;1.60;;;22.30;90.30;;;;;;5071486;28;20033;-80
2021/09/13 01:09:08;;;;;;;2.10;1.50;;;22.30;90.30;;;;;;5071580;28;20017;-81
2021/09/13 01:11:34;;;;;;;2.10;1.38;;;22.30;90.30;;;;;;5071153;28;20498;-81
2021/09/13 01:13:59;;;;;;;2.25;1.55;;;22.30;90.30;;;;;;5071392;28;20036;-82
2021/09/13 01:16:25;;;;;;;2.35;1.73;;;22.30;90.20;;;;;;5071270;28;20113;-81
2021/09/13 01:18:51;;;;;;;1.63;1.40;;;22.30;90.20;;;;;;5071083;28;20052;-80
2021/09/13 01:21:17;;;;;;;3.42;1.73;;;22.30;90.20;;;;;;5072193;28;20035;-82
2021/09/13 01:23:42;;;;;;;2.47;1.55;;;22.30;90.20;;;;;;5070868;28;20465;-82
2021/09/13 01:26:08;;;;;;;1.80;1.30;;;22.30;90.50;;;;;;5069962;28;20028;-81
2021/09/13 01:28:34;;;;;;;4.13;1.45;;;22.20;90.20;;;;;;5071155;28;20154;-80
2021/09/13 01:31:01;;;;;;;1.70;1.20;;;22.20;90.20;;;;;;5070636;28;20032;-79
2021/09/13 01:33:26;;;;;;;2.00;1.58;;;22.20;90.10;;;;;;5070593;28;20115;-80
2021/09/13 01:35:52;;;;;;;3.28;1.67;;;22.20;90.10;;;;;;5071452;28;20158;-82
2021/09/13 01:38:20;;;;;;;2.20;1.35;;;22.20;90.10;;;;;;5069667;28;20480;-82
2021/09/13 01:40:50;;;;;;;2.50;1.65;;;22.20;90.10;;;;;;5071237;28;20614;-81
2021/09/13 01:43:16;;;;;;;1.88;1.42;;;22.20;90.00;;;;;;5071661;28;20027;-81
2021/09/13 01:45:42;;;;;;;2.75;1.50;;;22.20;89.90;;;;;;5070654;28;20388;-80
2021/09/13 01:48:07;;;;;;;1.98;1.60;;;22.20;90.20;;;;;;5070801;28;20048;-80
2021/09/13 01:50:33;;;;;;;2.08;1.40;;;22.20;89.80;;;;;;5070879;28;20046;-82
2021/09/13 01:52:59;;;;;;;2.13;1.65;;;22.20;89.70;;;;;;5070450;28;20514;-80
2021/09/13 01:55:24;;;;;;;2.03;1.38;;;22.20;89.70;;;;;;5070725;28;20064;-82
2021/09/13 01:57:50;;;;;;;2.95;1.52;;;22.20;89.50;;;;;;5071360;28;20063;-81
2021/09/13 02:00:16;;;;;;;3.03;1.73;;;22.20;89.40;;;;;;5069854;28;20082;-81
2021/09/13 02:02:42;;;;;;;1.77;1.30;;;22.20;89.40;;;;;;5070394;28;20032;-81
2021/09/13 02:05:08;;;;;;;2.10;1.50;;;22.20;89.30;;;;;;5070811;28;20028;-81
2021/09/13 02:07:34;;;;;;;2.25;1.70;;;22.20;89.30;;;;;;5070710;28;20032;-81
2021/09/13 02:09:59;;;;;;;3.72;1.20;;;22.20;89.20;;;;;;5070613;28;20024;-82
2021/09/13 02:12:25;;;;;;;1.83;1.50;;;22.10;89.10;;;;;;5070826;28;20027;-81
2021/09/13 02:14:51;;;;;;;2.20;1.52;;;22.10;89.00;;;;;;5070616;28;20036;-80
2021/09/13 02:17:17;;;;;;;2.42;1.40;;;22.10;88.90;;;;;;5070936;28;20040;-81
2021/09/13 02:19:43;;;;;;;2.22;1.80;;;22.10;88.90;;;;;;5070908;28;20024;-81
2021/09/13 02:22:09;;;;;;;2.15;1.40;;;22.10;88.90;;;;;;5071077;28;20499;-82
2021/09/13 02:24:35;;;;;;;1.40;1.20;;;22.10;88.80;;;;;;5070086;28;20032;-81
2021/09/13 02:27:01;;;;;;;1.75;1.48;;;22.10;88.70;;;;;;5070803;28;20029;-81
2021/09/13 02:29:26;;;;;;;1.40;1.30;;;22.10;88.60;;;;;;5070121;28;20028;-82
2021/09/13 02:31:52;;;;;;;2.47;1.50;;;22.10;89.30;;;;;;5069990;28;20024;-82
2021/09/13 02:34:18;;;;;;;2.08;1.58;;;22.10;88.40;;;;;;5071246;28;20036;-82
2021/09/13 02:36:44;;;;;;;3.35;1.83;;;22.10;88.50;;;;;;5070250;28;20036;-81
2021/09/13 02:39:09;;;;;;;3.13;1.52;;;22.10;88.50;;;;;;5070523;28;20547;-80
2021/09/13 02:41:36;;;;;;;3.45;1.48;;;22.10;88.40;;;;;;5070428;28;20038;-81
2021/09/13 02:44:02;;;;;;;2.03;1.38;;;22.00;88.20;;;;;;5070192;28;20492;-79
2021/09/13 02:46:28;;;;;;;1.70;1.30;;;22.10;88.20;;;;;;5070645;28;20427;-81
2021/09/13 02:48:54;;;;;;;2.70;1.30;;;22.10;88.20;;;;;;5070078;28;20020;-82
2021/09/13 02:51:20;;;;;;;2.60;1.17;;;22.00;88.00;;;;;;5050472;28;20063;-75
2021/09/13 02:53:46;;;;;;;1.50;1.02;;;22.10;88.00;;;;;;5069269;28;20461;-80
2021/09/13 02:56:11;;;;;;;1.92;1.33;;;22.00;87.90;;;;;;5070259;28;20037;-82
2021/09/13 02:58:37;;;;;;;2.20;1.27;;;22.00;87.90;;;;;;5070020;28;20105;-80
2021/09/13 03:01:02;;;;;;;3.22;1.38;;;22.00;87.80;;;;;;5070059;28;20025;-81
2021/09/13 03:03:28;;;;;;;2.40;1.27;;;22.00;87.70;;;;;;5069728;28;20031;-81
2021/09/13 03:05:54;;;;;;;2.28;1.40;;;22.00;87.70;;;;;;5070413;28;20446;-83
2021/09/13 03:08:19;;;;;;;2.38;1.50;;;22.00;87.70;;;;;;5069098;28;20028;-82
2021/09/13 03:10:45;;;;;;;1.90;1.08;;;22.00;87.50;;;;;;5069519;28;20036;-83
2021/09/13 03:13:11;;;;;;;1.73;1.35;;;22.00;87.50;;;;;;5070969;28;20029;-82
2021/09/13 03:15:37;;;;;;;2.97;1.40;;;22.00;87.40;;;;;;5073265;28;20160;-82
2021/09/13 03:18:03;;;;;;;2.10;1.30;;;22.00;87.50;;;;;;5073659;28;20493;-81
2021/09/13 03:20:29;;;;;;;1.38;1.08;;;22.00;87.40;;;;;;5073763;28;20028;-82
2021/09/13 03:22:55;;;;;;;1.38;1.17;;;22.00;87.30;;;;;;5073281;28;20480;-79
2021/09/13 03:25:21;;;;;;;1.63;1.05;;;21.90;87.30;;;;;;5073263;28;20025;-77
2021/09/13 03:27:46;;;;;;;2.70;1.20;;;21.90;87.30;;;;;;5074054;28;20032;-81
2021/09/13 03:30:12;;;;;;;1.55;1.00;;;21.90;87.20;;;;;;5073097;28;20029;-81
2021/09/13 03:32:38;;;;;;;1.90;1.08;;;21.90;87.10;;;;;;5073157;28;20024;-82
2021/09/13 03:35:05;;;;;;;2.45;1.23;;;21.90;87.20;;;;;;5073650;28;20404;-82
2021/09/13 03:37:30;;;;;;;2.30;1.05;;;21.90;87.10;;;;;;5072850;28;20029;-81
2021/09/13 03:39:56;;;;;;;1.95;1.15;;;21.90;87.00;;;;;;5073072;28;20035;-82
2021/09/13 03:42:22;;;;;;;1.77;1.23;;;21.90;87.00;;;;;;5073179;28;20481;-81
2021/09/13 03:44:47;;;;;;;1.83;1.35;;;21.90;86.90;;;;;;5073491;28;20047;-80
2021/09/13 03:47:13;;;;;;;2.03;1.25;;;21.90;86.90;;;;;;5073416;28;20480;-80
2021/09/13 03:49:38;;;;;;;2.10;1.02;;;21.90;86.80;;;;;;5073125;28;20035;-82
2021/09/13 03:52:08;;;;;;;1.50;1.00;;;21.90;86.80;;;;;;5072794;28;20029;-82
2021/09/13 03:54:38;;;;;;;1.55;1.00;;;21.90;86.70;;;;;;5072450;28;20025;-81
2021/09/13 03:57:04;;;;;;;1.70;1.27;;;21.90;86.70;;;;;;5073434;28;20127;-82
2021/09/13 03:59:31;;;;;;;1.80;1.05;;;21.90;86.50;;;;;;5073366;28;20099;-82
2021/09/13 04:01:58;;;;;;;1.30;1.10;;;21.90;86.60;;;;;;5073032;28;20441;-83
2021/09/13 04:04:26;;;;;;;0.93;0.80;;;21.90;86.50;;;;;;5073130;28;20028;-82
2021/09/13 04:06:56;;;;;;;3.85;1.20;;;21.80;86.40;;;;;;5072720;28;20029;-82
2021/09/13 04:11:54;;;;;;;3.47;1.30;;;21.80;86.30;;;;;;5072767;28;20028;-82
2021/09/13 04:14:21;;;;;;;3.00;1.35;;;21.80;86.30;;;;;;5073173;28;20033;-76
2021/09/13 04:16:46;;;;;;;2.03;1.17;;;21.90;86.30;;;;;;5072923;28;20109;-77
2021/09/13 04:19:12;;;;;;;2.05;1.05;;;21.80;86.30;;;;;;5072783;28;20539;-79
2021/09/13 04:21:38;;;;;;;2.03;1.40;;;21.80;86.10;;;;;;5071215;28;20027;-81
2021/09/13 04:24:05;;;;;;;2.45;1.10;;;21.80;86.00;;;;;;5071772;28;20078;-81
2021/09/13 04:26:30;;;;;;;1.60;1.10;;;21.80;86.00;;;;;;5071537;28;20153;-76
2021/09/13 04:28:56;;;;;;;1.85;1.10;;;21.80;86.00;;;;;;5072336;28;20061;-77
2021/09/13 04:31:22;;;;;;;1.42;1.00;;;21.80;86.00;;;;;;5071666;28;20064;-76
2021/09/13 04:33:47;;;;;;;2.10;0.93;;;21.90;86.10;;;;;;5072600;28;20043;-78
2021/09/13 04:36:13;;;;;;;2.28;1.38;;;21.80;85.90;;;;;;5072119;28;20127;-78
2021/09/13 04:38:39;;;;;;;1.65;0.90;;;21.80;85.90;;;;;;5071508;28;20025;-78
2021/09/13 04:41:04;;;;;;;1.15;0.85;;;21.80;85.90;;;;;;5072430;28;20396;-79
2021/09/13 04:43:30;;;;;;;3.03;1.17;;;21.80;85.80;;;;;;5071666;28;20065;-81
2021/09/13 04:45:56;;;;;;;3.17;1.40;;;21.80;85.70;;;;;;5071591;28;20033;-79
2021/09/13 04:48:21;;;;;;;2.38;1.33;;;21.80;85.80;;;;;;5071205;28;20100;-81
2021/09/13 04:50:47;;;;;;;2.00;1.20;;;21.80;85.70;;;;;;5072411;28;20028;-79
2021/09/13 04:53:12;;;;;;;1.60;1.23;;;21.80;85.70;;;;;;5071853;28;20013;-78
2021/09/13 04:55:38;;;;;;;2.55;1.08;;;21.80;85.50;;;;;;5071636;28;20056;-81
2021/09/13 04:58:04;;;;;;;2.15;0.90;;;21.80;85.40;;;;;;5072140;28;20035;-78
2021/09/13 05:00:30;;;;;;;1.70;1.27;;;21.70;85.50;;;;;;5071030;28;20055;-80
2021/09/13 05:02:56;;;;;;;2.65;1.08;;;21.80;85.10;;;;;;5071431;28;20039;-77
2021/09/13 05:05:21;;;;;;;1.73;1.00;;;21.80;86.10;;;;;;5071632;28;20025;-78
2021/09/13 05:07:47;;;;;;;2.70;1.02;;;21.80;85.30;;;;;;5071905;28;20031;-79
2021/09/13 05:10:13;;;;;;;1.75;1.08;;;21.80;85.30;;;;;;5071509;28;20484;-80
2021/09/13 05:12:39;;;;;;;2.05;1.00;;;21.70;85.30;;;;;;5071285;28;20024;-79
2021/09/13 05:15:05;;;;;;;2.22;1.10;;;21.70;85.10;;;;;;5071378;28;20473;-81
2021/09/13 05:17:31;;;;;;;1.92;1.10;;;21.70;85.10;;;;;;5070994;28;20036;-80
2021/09/13 05:19:56;;;;;;;1.75;1.20;;;21.70;85.10;;;;;;5071615;28;20530;-80
2021/09/13 05:22:22;;;;;;;2.00;1.17;;;21.70;85.10;;;;;;5071586;28;20025;-77
2021/09/13 05:24:48;;;;;;;4.25;1.35;;;21.70;85.20;;;;;;5071094;28;20495;-81
2021/09/13 05:27:13;;;;;;;1.90;1.20;;;21.70;85.10;;;;;;5071568;28;20086;-79
2021/09/13 05:29:39;;;;;;;2.45;1.58;;;21.70;85.00;;;;;;5067226;28;20113;-78
2021/09/13 05:32:06;;;;;;;1.88;1.10;;;21.70;85.00;;;;;;5069747;28;20507;-79
2021/09/13 05:34:31;;;;;;;1.55;1.05;;;21.70;84.80;;;;;;5071401;28;20074;-81
2021/09/13 05:36:57;;;;;;;1.55;1.35;;;21.70;84.90;;;;;;5070464;28;20032;-80
2021/09/13 05:39:23;;;;;;;1.70;1.33;;;21.70;84.90;;;;;;5070434;28;20028;-79
2021/09/13 05:41:49;;;;;;;3.78;1.17;;;21.70;84.80;;;;;;5071553;28;20077;-76
2021/09/13 05:44:15;;;;;;;3.85;1.10;;;21.70;84.70;;;;;;5071160;28;20024;-81
2021/09/13 05:46:40;;;;;;;2.00;1.17;;;21.70;84.70;;;;;;5069984;28;20032;-78
2021/09/13 05:49:10;;;;;;;2.50;0.90;;;21.70;84.70;;;;;;5069699;28;20028;-80
2021/09/13 05:51:40;;;;;;;1.92;1.20;;;21.70;84.80;;;;;;5070140;28;20027;-75
2021/09/13 05:54:05;;;;;;;2.15;1.15;;;21.60;84.60;;;;;;5070411;28;20567;-81
2021/09/13 05:56:31;;;;;;;2.10;1.10;;;21.60;84.60;;;;;;5070564;28;20134;-79
2021/09/13 05:58:57;;;;;;;1.95;0.80;;;21.60;84.50;;;;;;5070955;28;20379;-79
2021/09/13 06:01:22;;;;;;;2.17;1.27;;;21.70;85.30;;;;;;5070924;28;20016;-76
2021/09/13 06:03:48;;;;;;;4.65;1.30;;;21.60;84.10;;;;;;5070266;28;20056;-81
2021/09/13 06:06:14;;;;;;;1.63;1.15;;;21.60;84.60;;;;;;5070599;28;20024;-79
2021/09/13 06:08:39;;;;;;;1.48;0.85;;;21.60;84.40;;;;;;5069946;28;20470;-80
2021/09/13 06:11:05;;;;;;;2.22;1.33;;;21.60;84.40;;;;;;5070968;28;20039;-79
2021/09/13 06:13:31;;;;;;;2.75;1.30;;;21.60;84.50;;;;;;5070184;28;20032;-81
2021/09/13 06:15:57;;;;;;;1.17;0.80;;;21.60;84.40;;;;;;5068416;28;20064;-81
2021/09/13 06:18:23;;;;;;;3.90;1.55;;;21.60;84.30;;;;;;5070339;28;20472;-77
2021/09/13 06:20:49;;;;;;;3.25;1.63;;;21.60;84.60;;;;;;5070854;28;20389;-78
2021/09/13 06:23:15;;;;;;;2.10;1.40;;;21.50;84.70;;;;;;5071029;28;20081;-79
2021/09/13 06:25:41;;;;;;;6.15;1.33;;;21.60;85.00;;;;;;5070682;28;20032;-79
2021/09/13 06:28:06;;;;;;;3.85;1.40;;;21.50;85.00;;;;;;5070904;28;20028;-79
2021/09/13 06:30:32;;;;;;;1.90;1.17;;;21.60;85.00;;;;;;5070156;28;20032;-77
2021/09/13 06:32:58;;;;;;;3.83;1.20;;;21.60;85.10;;;;;;5069683;28;20056;-77
2021/09/13 06:35:23;;;;;;;2.17;1.00;;;21.60;85.10;;;;;;5069533;28;20024;-79
2021/09/13 06:37:49;;;;;;;3.38;1.10;;;21.50;85.40;;;;;;5071075;28;20021;-78
2021/09/13 06:40:15;;;;;;;2.40;1.33;;;21.50;85.20;;;;;;5070799;28;20469;-82
2021/09/13 06:42:41;;;;;;;5.15;1.42;;;21.60;85.60;;;;;;5070665;28;20021;-83
2021/09/13 06:45:11;;;;;;;28.95;22.55;;;21.60;85.60;;;;;;5069987;28;20407;-82
2021/09/13 06:47:44;;;;;;;12.88;9.00;;;21.60;86.10;;;;;;5070587;28;20028;-82
2021/09/13 06:50:19;;;;;;;9.35;6.13;;;21.60;86.20;;;;;;5073421;28;20028;-77
2021/09/13 06:52:46;;;;;;;7.63;5.70;;;21.60;86.10;;;;;;5075033;28;20031;-79
2021/09/13 06:55:12;;;;;;;10.85;6.95;;;21.60;86.10;;;;;;5074356;28;20381;-79
2021/09/13 06:57:38;;;;;;;9.07;6.18;;;21.60;86.10;;;;;;5074430;28;20028;-78
2021/09/13 07:00:08;;;;;;;7.35;6.05;;;21.60;86.20;;;;;;5068582;28;20480;-79
2021/09/13 07:02:34;;;;;;;8.07;6.70;;;21.70;86.10;;;;;;5073893;28;20016;-80
2021/09/13 07:05:00;;;;;;;9.57;6.05;;;21.70;86.00;;;;;;5074172;28;20100;-80
2021/09/13 07:07:26;;;;;;;6.65;4.68;;;21.60;86.60;;;;;;5074153;28;20032;-79
2021/09/13 07:09:51;;;;;;;9.15;5.20;;;21.60;85.80;;;;;;5073881;28;20029;-81
2021/09/13 07:12:19;;;;;;;7.85;5.30;;;21.60;85.70;;;;;;5070578;28;20029;-80
2021/09/13 07:14:45;;;;;;;8.45;5.20;;;21.60;85.60;;;;;;5069116;28;20025;-78
2021/09/13 07:17:10;;;;;;;8.90;4.22;;;21.70;85.60;;;;;;5053990;28;20040;-79
2021/09/13 07:19:36;;;;;;;6.85;4.55;;;21.70;86.30;;;;;;5053831;28;20033;-78
2021/09/13 07:22:02;;;;;;;7.68;4.32;;;21.70;85.60;;;;;;5055002;28;20021;-79
2021/09/13 07:24:27;;;;;;;10.05;4.47;;;21.70;85.50;;;;;;5053881;28;20032;-77
2021/09/13 07:26:53;;;;;;;6.05;3.67;;;21.70;85.50;;;;;;5053658;28;20021;-75
2021/09/13 07:29:18;;;;;;;7.22;3.78;;;21.70;85.50;;;;;;5059323;28;20039;-77
2021/09/13 07:31:44;;;;;;;5.05;3.53;;;21.70;85.50;;;;;;5054433;28;20025;-76
2021/09/13 07:34:10;;;;;;;7.25;5.13;;;21.70;85.40;;;;;;5053815;28;20033;-77
2021/09/13 07:36:36;;;;;;;9.50;5.93;;;21.70;84.80;;;;;;5053539;28;20061;-76
2021/09/13 07:39:02;;;;;;;6.57;5.07;;;21.50;85.70;;;;;;5052589;28;20566;-78
2021/09/13 07:41:28;;;;;;;8.68;4.38;;;21.50;86.00;;;;;;5062398;28;20025;-76
2021/09/13 07:43:53;;;;;;;5.65;3.95;;;21.60;85.60;;;;;;5054743;28;20081;-78
2021/09/13 07:46:19;;;;;;;7.07;3.25;;;21.60;85.60;;;;;;5055444;28;20061;-79
2021/09/13 07:48:45;;;;;;;4.95;3.10;;;21.70;85.60;;;;;;5053560;28;20449;-77
2021/09/13 07:51:10;;;;;;;5.13;3.00;;;21.70;85.20;;;;;;5053594;28;20033;-75
2021/09/13 07:53:36;;;;;;;5.53;2.88;;;21.70;85.30;;;;;;5053278;28;20519;-74
2021/09/13 07:56:01;;;;;;;4.93;2.80;;;21.70;85.10;;;;;;5053134;28;20057;-78
2021/09/13 07:58:27;;;;;;;4.43;2.53;;;21.70;85.00;;;;;;5053188;28;20057;-78
2021/09/13 08:00:52;;;;;;;5.80;2.30;;;21.70;85.00;;;;;;5053849;28;20025;-77
2021/09/13 08:03:18;;;;;;;5.60;2.13;;;21.70;84.80;;;;;;5053559;28;20491;-76
2021/09/13 08:05:44;;;;;;;4.32;1.90;;;21.70;84.80;;;;;;5052975;28;20400;-78
2021/09/13 08:08:12;;;;;;;3.03;1.92;;;21.70;84.60;;;;;;5053079;28;20060;-77
2021/09/13 08:10:38;;;;;;;3.10;1.67;;;21.70;85.30;;;;;;5052668;28;20029;-76
2021/09/13 08:13:03;;;;;;;3.17;1.80;;;21.70;84.50;;;;;;5053210;28;20028;-75
2021/09/13 08:15:29;;;;;;;2.17;1.45;;;21.70;84.40;;;;;;5052386;28;20033;-76
2021/09/13 08:17:55;;;;;;;6.05;1.95;;;21.70;84.40;;;;;;5052868;28;20473;-76
2021/09/13 08:20:21;;;;;;;4.32;1.70;;;21.70;84.40;;;;;;5052764;28;20032;-75
2021/09/13 08:22:47;;;;;;;4.50;2.00;;;21.70;84.40;;;;;;5059479;28;20487;-75
2021/09/13 08:25:13;;;;;;;2.90;1.70;;;21.70;84.30;;;;;;5067791;28;20079;-75
2021/09/13 08:27:39;;;;;;;3.30;1.42;;;21.70;84.40;;;;;;5070545;28;20104;-76
2021/09/13 08:30:05;;;;;;;4.85;1.60;;;21.70;84.20;;;;;;5070720;28;20027;-77
2021/09/13 08:32:31;;;;;;;4.05;1.23;;;21.80;84.20;;;;;;5072709;28;20025;-75
2021/09/13 08:34:57;;;;;;;3.15;1.48;;;21.70;84.10;;;;;;5066888;28;20029;-79
2021/09/13 08:37:22;;;;;;;3.90;1.48;;;21.80;84.20;;;;;;5052242;28;20076;-75
2021/09/13 08:39:48;;;;;;;2.85;1.33;;;21.80;84.10;;;;;;5052588;28;20027;-74
2021/09/13 08:42:14;;;;;;;4.13;1.88;;;21.80;84.20;;;;;;5052345;28;20035;-75
2021/09/13 08:44:40;;;;;;;1.90;1.30;;;21.80;84.10;;;;;;5052716;28;20049;-75
2021/09/13 08:47:17;;;;;;;2.58;1.33;;;21.80;83.90;;;;;;5051430;28;20037;-75
2021/09/13 08:49:43;;;;;;;4.35;1.65;;;21.80;84.00;;;;;;5051946;28;20433;-75
2021/09/13 08:52:09;;;;;;;2.20;1.00;;;21.80;83.90;;;;;;5052206;28;20025;-75
2021/09/13 08:54:37;;;;;;;2.35;1.30;;;21.80;83.80;;;;;;5052144;28;20017;-76
2021/09/13 08:57:05;;;;;;;2.30;1.23;;;21.80;83.80;;;;;;5052150;28;20044;-75
2021/09/13 08:59:35;;;;;;;2.05;1.40;;;21.80;83.80;;;;;;5051849;28;20039;-76
2021/09/13 09:02:02;;;;;;;1.90;1.10;;;21.80;83.90;;;;;;5052238;28;20021;-74
2021/09/13 09:04:29;;;;;;;2.38;1.20;;;21.80;83.70;;;;;;5051691;28;20534;-75
2021/09/13 09:07:09;;;;;;;3.97;1.48;;;21.80;83.80;;;;;;5072053;28;20024;-74
2021/09/13 09:09:36;;;;;;;2.90;1.63;;;21.90;83.80;;;;;;5071707;28;20043;-76
2021/09/13 09:12:07;;;;;;;2.75;1.25;;;21.80;83.70;;;;;;5069847;28;20140;-75
2021/09/13 09:14:47;;;;;;;2.83;1.40;;;21.80;83.80;;;;;;5071466;28;20025;-76
2021/09/13 09:17:22;;;;;;;2.00;1.15;;;21.80;83.80;;;;;;5059759;28;20032;-75
2021/09/13 09:19:58;;;;;;;2.75;1.25;;;21.90;83.80;;;;;;5072162;28;20029;-75
2021/09/13 09:22:26;;;;;;;2.90;1.40;;;21.90;83.90;;;;;;5063841;28;20024;-75
2021/09/13 09:24:55;;;;;;;3.20;1.20;;;21.90;83.80;;;;;;5060011;28;20025;-75
2021/09/13 09:27:21;;;;;;;1.75;1.15;;;21.90;83.90;;;;;;5065992;28;20016;-74
2021/09/13 09:29:47;;;;;;;2.22;1.00;;;21.90;83.70;;;;;;5071066;28;20078;-77
2021/09/13 09:32:21;;;;;;;3.28;1.23;;;21.90;83.70;;;;;;5071572;28;20020;-76
2021/09/13 09:34:47;;;;;;;4.30;1.65;;;21.90;83.50;;;;;;5071494;28;20472;-75
2021/09/13 09:37:13;;;;;;;2.20;1.10;;;22.00;83.70;;;;;;5071361;28;20090;-74
2021/09/13 09:39:41;;;;;;;3.60;1.08;;;22.00;83.60;;;;;;5071433;28;20414;-76
2021/09/13 09:42:10;;;;;;;2.92;1.90;;;22.00;83.50;;;;;;5071188;28;20028;-76
2021/09/13 09:44:38;;;;;;;2.70;1.00;;;22.00;83.70;;;;;;5070244;28;20348;-75
2021/09/13 09:47:10;;;;;;;2.33;1.15;;;22.00;83.60;;;;;;5071518;28;20017;-75
2021/09/13 09:49:41;;;;;;;4.03;1.42;;;22.00;83.60;;;;;;5070963;28;20511;-75
2021/09/13 09:52:07;;;;;;;2.50;1.10;;;22.00;83.60;;;;;;5070880;28;20029;-74
2021/09/13 09:54:33;;;;;;;1.85;1.00;;;22.00;83.60;;;;;;5071085;28;20077;-76
2021/09/13 09:57:08;;;;;;;2.30;1.00;;;22.00;83.60;;;;;;5070447;28;20044;-75
2021/09/13 09:59:36;;;;;;;2.70;0.88;;;22.00;83.60;;;;;;5070830;28;20061;-75
2021/09/13 10:02:12;;;;;;;2.60;1.20;;;22.10;83.60;;;;;;5068694;28;20043;-75
2021/09/13 10:04:38;;;;;;;2.40;1.10;;;22.10;83.50;;;;;;5066816;28;20033;-75
2021/09/13 10:07:04;;;;;;;1.80;0.85;;;22.10;83.40;;;;;;5070722;28;20150;-75
2021/09/13 10:09:30;;;;;;;1.73;1.20;;;22.10;83.60;;;;;;5070669;28;20048;-75
2021/09/13 10:11:59;;;;;;;2.65;1.17;;;22.10;83.70;;;;;;5070308;28;20047;-75
2021/09/13 10:14:27;;;;;;;1.85;1.02;;;22.10;83.50;;;;;;5070863;28;20496;-75
2021/09/13 10:16:53;;;;;;;3.45;1.20;;;22.10;83.40;;;;;;5069582;28;20036;-76
2021/09/13 10:19:21;;;;;;;2.05;1.13;;;22.10;83.50;;;;;;5071423;28;20025;-75
2021/09/13 10:21:48;;;;;;;3.20;0.90;;;22.10;83.50;;;;;;5071168;28;20514;-75
2021/09/13 10:24:20;;;;;;;1.95;0.80;;;22.10;83.60;;;;;;5073018;28;20024;-78
2021/09/13 10:26:52;;;;;;;1.83;1.00;;;22.10;83.60;;;;;;5074618;28;20064;-77
2021/09/13 10:29:21;;;;;;;2.50;0.90;;;22.10;83.60;;;;;;5074925;28;20017;-78
2021/09/13 10:31:47;;;;;;;2.45;1.20;;;22.10;83.70;;;;;;5074785;28;20060;-77
2021/09/13 10:34:21;;;;;;;1.90;1.10;;;22.20;83.60;;;;;;5074414;28;20028;-77
2021/09/13 10:36:59;;;;;;;2.95;1.05;;;22.20;83.60;;;;;;5074802;28;20072;-77
2021/09/13 10:39:46;;;;;;;3.88;1.15;;;22.20;83.60;;;;;;5074579;28;20112;-77
2021/09/13 10:42:44;;;;;;;4.43;1.00;;;22.10;83.60;;;;;;5074788;28;20033;-75
2021/09/13 10:45:19;;;;;;;3.30;1.40;;;22.20;84.30;;;;;;5068377;28;20036;-77
2021/09/13 10:47:59;;;;;;;1.20;0.70;;;22.20;83.50;;;;;;5074714;28;20032;-77
2021/09/13 10:50:53;;;;;;;2.13;1.00;;;22.20;83.40;;;;;;5073537;28;20031;-76
2021/09/13 10:53:22;;;;;;;2.67;1.08;;;22.20;83.50;;;;;;5074844;28;20051;-76
2021/09/13 10:55:49;;;;;;;2.95;1.17;;;22.20;83.60;;;;;;5074434;28;20028;-74
2021/09/13 10:58:40;;;;;;;2.85;1.00;;;22.20;83.60;;;;;;5068930;28;20025;-74
2021/09/13 11:01:09;;;;;;;2.47;1.10;;;22.20;83.50;;;;;;5072457;28;20433;-78
2021/09/13 11:03:39;;;;;;;2.47;1.05;;;22.20;83.60;;;;;;5074187;28;20020;-77
2021/09/13 11:06:08;;;;;;;2.22;1.00;;;22.20;83.60;;;;;;5074207;28;20515;-75
2021/09/13 11:08:56;;;;;;;1.55;1.00;;;22.30;83.50;;;;;;5073837;28;20028;-73
2021/09/13 11:11:35;;;;;;;3.55;1.00;;;22.30;83.60;;;;;;5073872;28;20056;-76
2021/09/13 11:14:08;;;;;;;2.25;1.00;;;22.30;83.70;;;;;;5073988;28;20476;-75
2021/09/13 11:16:37;;;;;;;3.25;1.05;;;22.30;83.60;;;;;;5073851;28;20032;-76
2021/09/13 11:19:09;;;;;;;2.15;1.25;;;22.30;83.50;;;;;;5073984;28;20016;-77
2021/09/13 11:21:37;;;;;;;2.42;1.33;;;22.30;83.50;;;;;;5074120;28;20017;-74
2021/09/13 11:24:13;;;;;;;2.53;1.02;;;22.40;83.40;;;;;;5073768;28;20024;-79
2021/09/13 11:26:43;;;;;;;1.95;1.05;;;22.40;83.40;;;;;;5073784;28;20025;-77
2021/09/13 11:29:10;;;;;;;2.63;1.27;;;22.40;83.40;;;;;;5073915;28;20031;-77
2021/09/13 11:31:56;;;;;;;2.05;1.23;;;22.40;83.40;;;;;;5072063;28;20031;-78
2021/09/13 11:34:26;;;;;;;1.85;1.10;;;22.40;83.20;;;;;;5072607;28;20169;-75
2021/09/13 11:37:09;;;;;;;1.83;1.10;;;22.50;83.30;;;;;;5073636;28;20124;-77
2021/09/13 11:39:38;;;;;;;2.08;1.00;;;22.40;83.20;;;;;;5073189;28;20074;-75
2021/09/13 11:42:17;;;;;;;1.70;1.00;;;22.50;83.20;;;;;;5073257;28;20028;-77
2021/09/13 11:44:44;;;;;;;4.88;1.23;;;22.40;83.40;;;;;;5073349;28;20062;-78
2021/09/13 11:47:12;;;;;;;3.38;1.35;;;22.50;83.30;;;;;;5072969;28;20029;-79
2021/09/13 11:49:41;;;;;;;13.77;11.85;;;22.50;83.30;;;;;;5072790;28;20024;-79
2021/09/13 11:52:28;;;;;;;8.23;6.28;;;22.50;83.50;;;;;;5073132;28;20112;-76
2021/09/13 11:54:55;;;;;;;15.63;13.88;;;22.60;83.40;;;;;;5073458;28;20021;-78
2021/09/13 11:57:24;;;;;;;19.90;16.90;;;22.70;83.60;;;;;;5073277;28;20093;-76
2021/09/13 12:00:08;;;;;;;25.05;21.27;;;22.70;83.60;;;;;;5073634;28;20423;-76
2021/09/13 12:02:34;;;;;;;22.38;19.77;;;22.80;83.50;;;;;;5072596;28;20032;-81
2021/09/13 12:05:13;;;;;;;21.10;17.25;;;22.80;83.50;;;;;;5073180;28;20068;-73
2021/09/13 12:07:40;;;;;;;21.08;17.75;;;22.90;83.20;;;;;;5072664;28;20106;-79
2021/09/13 12:10:07;;;;;;;17.13;14.90;;;22.90;83.20;;;;;;5072505;28;20075;-76
2021/09/13 12:12:35;;;;;;;19.52;16.70;;;22.90;83.10;;;;;;5073020;28;20033;-79
2021/09/13 12:15:05;;;;;;;18.05;15.15;;;22.90;83.00;;;;;;5073108;28;20439;-77
2021/09/13 12:17:50;;;;;;;15.45;13.95;;;23.00;83.10;;;;;;5072041;28;20040;-74
2021/09/13 12:20:31;;;;;;;15.10;13.45;;;23.00;82.90;;;;;;5073426;28;20024;-78
2021/09/13 12:23:06;;;;;;;17.05;13.05;;;23.00;82.70;;;;;;5072851;28;20028;-78
2021/09/13 12:25:41;;;;;;;13.57;12.02;;;23.00;82.70;;;;;;5072246;28;20032;-74
2021/09/13 12:28:08;;;;;;;14.25;12.10;;;23.10;82.60;;;;;;5072848;28;20035;-78
2021/09/13 12:30:35;;;;;;;12.45;10.93;;;23.20;82.40;;;;;;5072094;28;20029;-78
2021/09/13 12:33:06;;;;;;;13.10;10.98;;;23.20;82.30;;;;;;5072627;28;20066;-74
2021/09/13 12:35:39;;;;;;;10.82;9.68;;;23.20;82.20;;;;;;5072514;28;20052;-76
2021/09/13 12:38:12;;;;;;;11.32;9.43;;;23.20;82.00;;;;;;5072529;28;20396;-78
2021/09/13 12:40:57;;;;;;;10.35;8.82;;;23.30;82.00;;;;;;5072326;28;20454;-75
2021/09/13 12:43:28;;;;;;;;;;;23.30;82.00;;;;;;5072763;28;20070;-78
2021/09/13 12:46:10;;;;;;;9.77;7.97;;;23.40;81.90;;;;;;5071018;28;19904;-79
2021/09/13 12:48:42;;;;;;;10.23;7.63;;;23.40;81.80;;;;;;5071900;28;20021;-78
2021/09/13 12:51:22;;;;;;;8.95;6.90;;;23.50;81.60;;;;;;5072385;28;20104;-79